Time;durP1;ratioP1;P1;durP2;ratioP2;P2;SDS_P1;SDS_P2;PMS_P1;PMS_P2;Temp;Humidity;BMP_temperature;BMP_pressure;BME280_temperature;BME280_humidity;BME280_pressure;Samples;Min_cycle;Max_cycle;Signal;HPM_P1;HPM_P2
2022/11/17 00:01:39;;;;;;;;;;;;;;;20.10;48.24;98763.31;5129116;28;19934;-37
2022/11/17 00:04:05;;;;;;;;;;;;;;;20.09;47.99;98759.75;5127812;27;19930;-39
2022/11/17 00:06:30;;;;;;;;;;;;;;;20.10;48.14;98749.50;5130258;28;19972;-39
2022/11/17 00:08:56;;;;;;;;;;;;;;;20.08;48.33;98755.38;5128648;28;19931;-38
2022/11/17 00:11:21;;;;;;;;;;;;;;;20.09;48.25;98740.41;5128404;28;19975;-39
2022/11/17 00:16:32;;;;;;;;;;;;;;;20.08;47.95;98730.50;5115567;28;19978;-38
2022/11/17 00:21:43;;;;;;;;;;;;;;;20.08;48.02;98722.22;5110316;28;19962;-39
2022/11/17 00:24:09;;;;;;;;;;;;;;;20.08;47.98;98708.41;5126680;28;19932;-39
2022/11/17 00:27:00;;;;;;;;;;;;;;;20.09;47.99;98703.69;5119617;28;19924;-39
2022/11/17 00:29:20;;;;;;;;;;;;;;;20.09;48.22;98703.69;5098387;28;19988;-38
2022/11/17 00:34:31;;;;;;;;;;;;;;;20.08;48.00;98691.81;5112958;28;19952;-39
2022/11/17 00:36:56;;;;;;;;;;;;;;;20.07;47.97;98690.19;5129717;28;19931;-38
2022/11/17 00:39:22;;;;;;;;;;;;;;;20.08;47.89;98682.69;5128735;27;19931;-38
2022/11/17 00:41:48;;;;;;;;;;;;;;;20.07;47.87;98676.38;5109896;28;19946;-38
2022/11/17 00:44:13;;;;;;;;;;;;;;;20.08;48.11;98653.16;5109266;28;19939;-39
2022/11/17 00:46:39;;;;;;;;;;;;;;;20.08;48.21;98652.31;5106629;28;19923;-39
2022/11/17 00:49:05;;;;;;;;;;;;;;;20.07;47.98;98648.75;5130032;28;19974;-39
2022/11/17 00:51:31;;;;;;;;;;;;;;;20.07;48.02;98634.94;5127356;28;20044;-39
2022/11/17 00:53:56;;;;;;;;;;;;;;;20.09;48.21;98629.06;5128824;28;19935;-38
2022/11/17 00:56:22;;;;;;;;;;;;;;;20.07;47.97;98626.63;5131411;28;19931;-38
2022/11/17 00:58:48;;;;;;;;;;;;;;;20.07;48.00;98643.22;5110059;28;19976;-39
2022/11/17 01:01:13;;;;;;;;;;;;;;;20.07;48.15;98634.94;5109692;28;19969;-39
2022/11/17 01:03:39;;;;;;;;;;;;;;;20.07;47.88;98642.41;5128796;27;19923;-40
2022/11/17 01:06:06;;;;;;;;;;;;;;;20.07;48.28;98636.88;5129498;28;19923;-40
2022/11/17 01:08:33;;;;;;;;;;;;;;;20.07;47.99;98631.34;5112574;28;20410;-39
2022/11/17 01:11:14;;;;;;;;;;;;;;;20.07;48.07;98632.16;5128102;28;19966;-38
2022/11/17 01:13:39;;;;;;;;;;;;;;;20.07;47.98;98628.59;5109931;28;20402;-39
2022/11/17 01:16:06;;;;;;;;;;;;;;;20.06;48.17;98613.97;5127395;28;19931;-38
2022/11/17 01:18:32;;;;;;;;;;;;;;;20.07;48.06;98617.53;5129036;28;19962;-40
2022/11/17 01:21:06;;;;;;;;;;;;;;;20.06;48.22;98597.41;5127254;28;20257;-39
2022/11/17 01:23:32;;;;;;;;;;;;;;;20.05;47.99;98601.31;5119204;28;19973;-39
2022/11/17 01:26:00;;;;;;;;;;;;;;;20.07;48.21;98603.72;5128157;28;19923;-39
2022/11/17 01:28:25;;;;;;;;;;;;;;;20.06;48.04;98589.13;5125662;27;19963;-38
2022/11/17 01:30:57;;;;;;;;;;;;;;;20.05;47.87;98577.25;5124852;28;19927;-39
2022/11/17 01:33:22;;;;;;;;;;;;;;;20.04;48.30;98572.88;5106882;28;19956;-40
2022/11/17 01:35:48;;;;;;;;;;;;;;;20.05;48.03;98573.69;5129503;28;19930;-39
2022/11/17 01:38:13;;;;;;;;;;;;;;;20.05;48.01;98565.41;5125535;28;20397;-39
2022/11/17 01:40:39;;;;;;;;;;;;;;;20.05;48.28;98565.41;5123187;28;19931;-38
2022/11/17 01:43:07;;;;;;;;;;;;;;;20.05;47.94;98559.88;5124496;28;19931;-37
2022/11/17 01:45:33;;;;;;;;;;;;;;;20.05;47.90;98543.28;5128889;28;19965;-38
2022/11/17 01:47:59;;;;;;;;;;;;;;;20.05;48.23;98541.34;5127402;28;20146;-38
2022/11/17 01:50:33;;;;;;;;;;;;;;;20.05;47.89;98537.78;5123741;28;19931;-39
2022/11/17 01:52:59;;;;;;;;;;;;;;;20.05;47.80;98557.13;5108186;28;19982;-39
2022/11/17 01:55:27;;;;;;;;;;;;;;;20.04;48.12;98536.16;5129882;28;20268;-38
2022/11/17 01:57:54;;;;;;;;;;;;;;;20.04;47.82;98545.25;5129009;28;19955;-39
2022/11/17 02:00:19;;;;;;;;;;;;;;;20.04;48.03;98541.69;5130188;28;19987;-39
2022/11/17 02:02:45;;;;;;;;;;;;;;;20.04;48.00;98528.69;5125140;28;19931;-38
2022/11/17 02:05:15;;;;;;;;;;;;;;;20.04;47.83;98542.50;5127831;28;19935;-38
2022/11/17 02:07:40;;;;;;;;;;;;;;;20.03;48.15;98532.59;5128536;28;19970;-37
2022/11/17 02:10:06;;;;;;;;;;;;;;;20.04;47.94;98541.69;5130189;28;19931;-37
2022/11/17 02:12:32;;;;;;;;;;;;;;;20.04;48.09;98533.41;5109507;27;19966;-39
2022/11/17 02:14:58;;;;;;;;;;;;;;;20.04;48.12;98528.69;5119312;28;19931;-39
2022/11/17 02:17:25;;;;;;;;;;;;;;;20.04;47.92;98525.13;5128973;28;19923;-38
2022/11/17 02:19:54;;;;;;;;;;;;;;;20.03;47.82;98513.25;5101529;28;20022;-40
2022/11/17 02:22:25;;;;;;;;;;;;;;;20.03;47.98;98509.66;5127909;28;20382;-39
2022/11/17 02:27:36;;;;;;;;;;;;;;;20.02;48.09;98497.81;5172820;27;20295;-39
2022/11/17 02:30:03;;;;;;;;;;;;;;;20.03;48.13;98498.63;5151851;27;19958;-39
2022/11/17 02:32:30;;;;;;;;;;;;;;;20.02;47.94;98495.06;5152848;27;19988;-39
2022/11/17 02:37:56;;;;;;;;;;;;;;;20.02;48.13;98486.75;5161035;27;19925;-39
2022/11/17 02:40:24;;;;;;;;;;;;;;;20.02;47.95;98486.75;5161918;27;19971;-39
2022/11/17 02:45:40;;;;;;;;;;;;;;;20.03;47.79;98471.00;5143574;27;20027;-37
2022/11/17 02:48:07;;;;;;;;;;;;;;;20.02;47.84;98475.72;5162914;27;19972;-39
2022/11/17 02:50:33;;;;;;;;;;;;;;;20.02;47.83;98477.66;5143826;27;20054;-37
2022/11/17 02:52:58;;;;;;;;;;;;;;;20.02;47.90;98470.19;5163400;27;20020;-39
2022/11/17 02:55:24;;;;;;;;;;;;;;;20.02;48.08;98475.72;5160871;27;19931;-39
2022/11/17 02:57:49;;;;;;;;;;;;;;;20.01;48.11;98471.34;5162386;27;19923;-38
2022/11/17 03:00:16;;;;;;;;;;;;;;;20.02;47.97;98458.34;5163150;27;19923;-39
2022/11/17 03:02:45;;;;;;;;;;;;;;;20.02;48.12;98463.84;5166270;27;19966;-39
2022/11/17 03:07:59;;;;;;;;;;;;;;;20.02;48.06;98455.56;5166666;27;19926;-39
2022/11/17 03:10:27;;;;;;;;;;;;;;;20.01;47.96;98453.97;5150364;27;19927;-39
2022/11/17 03:12:54;;;;;;;;;;;;;;;20.01;47.89;98451.19;5153663;27;20022;-38
2022/11/17 03:15:40;;;;;;;;;;;;;;;20.01;48.18;98460.28;5149021;27;20401;-38
2022/11/17 03:18:10;;;;;;;;;;;;;;;20.01;47.82;98443.72;5135587;27;20023;-39
2022/11/17 03:23:18;;;;;;;;;;;;;;;20.00;47.89;98425.53;5173711;27;19926;-39
2022/11/17 03:25:44;;;;;;;;;;;;;;;20.01;48.04;98435.44;5137015;27;19966;-39
2022/11/17 03:28:10;;;;;;;;;;;;;;;20.01;47.88;98429.09;5155816;27;20034;-38
2022/11/17 03:30:36;;;;;;;;;;;;;;;20.01;47.89;98415.28;5153590;27;19924;-39
2022/11/17 03:33:04;;;;;;;;;;;;;;;20.01;47.82;98415.28;5136333;27;19931;-37
2022/11/17 03:35:30;;;;;;;;;;;;;;;20.01;47.89;98418.06;5154180;27;19969;-39
2022/11/17 03:37:58;;;;;;;;;;;;;;;19.99;47.97;98396.31;5134294;27;19931;-39
2022/11/17 03:40:24;;;;;;;;;;;;;;;20.01;47.80;98413.31;5153417;27;19950;-39
2022/11/17 03:42:52;;;;;;;;;;;;;;;20.00;48.15;98392.38;5131887;27;19959;-38
2022/11/17 03:45:20;;;;;;;;;;;;;;;20.00;48.11;98386.06;5156964;27;20014;-39
2022/11/17 03:47:46;;;;;;;;;;;;;;;20.00;47.70;98392.38;5156661;27;19966;-39
2022/11/17 03:50:14;;;;;;;;;;;;;;;19.99;48.04;98399.06;5156076;27;19923;-39
2022/11/17 03:52:39;;;;;;;;;;;;;;;20.00;47.82;98397.13;5136151;27;20018;-39
2022/11/17 03:55:05;;;;;;;;;;;;;;;20.00;47.82;98386.06;5154435;27;19923;-39
2022/11/17 03:57:33;;;;;;;;;;;;;;;19.99;47.92;98379.72;5153880;27;19934;-39
2022/11/17 04:00:14;;;;;;;;;;;;;;;20.00;47.95;98375.00;5155633;27;19963;-39
2022/11/17 04:02:41;;;;;;;;;;;;;;;19.98;47.92;98375.34;5128475;27;20019;-39
2022/11/17 04:05:07;;;;;;;;;;;;;;;19.99;47.79;98359.56;5128812;27;19985;-39
2022/11/17 04:07:41;;;;;;;;;;;;;;;20.00;47.94;98373.06;5146828;27;19935;-40
2022/11/17 04:10:08;;;;;;;;;;;;;;;19.99;47.90;98362.31;5139469;27;20378;-39
2022/11/17 04:18:05;;;;;;;;;;;;;;;19.99;48.05;98356.81;5123552;27;19963;-37
2022/11/17 04:20:34;;;;;;;;;;;;;;;19.99;47.87;98354.03;5122765;27;19952;-39
2022/11/17 04:23:10;;;;;;;;;;;;;;;19.99;47.85;98354.88;5136550;27;20027;-39
2022/11/17 04:28:37;;;;;;;;;;;;;;;19.99;47.89;98356.81;5129178;27;19997;-39
2022/11/17 04:31:07;;;;;;;;;;;;;;;19.99;47.89;98346.59;5141453;27;19930;-39
2022/11/17 04:33:33;;;;;;;;;;;;;;;19.99;48.05;98340.22;5130500;27;19923;-39
2022/11/17 04:35:59;;;;;;;;;;;;;;;19.98;47.85;98336.66;5131265;27;20495;-40
2022/11/17 04:38:24;;;;;;;;;;;;;;;19.99;47.78;98340.22;5131167;27;19924;-38
2022/11/17 04:43:36;;;;;;;;;;;;;;;19.98;47.87;98333.09;5097875;28;20294;-40
2022/11/17 04:46:02;;;;;;;;;;;;;;;19.98;47.97;98333.09;5108883;27;19980;-39
2022/11/17 04:48:27;;;;;;;;;;;;;;;19.98;47.90;98330.34;5135223;27;19928;-39
2022/11/17 04:50:54;;;;;;;;;;;;;;;19.97;47.81;98326.78;5123511;27;19934;-39
2022/11/17 04:53:19;;;;;;;;;;;;;;;19.98;47.88;98322.06;5109401;27;20355;-39
2022/11/17 04:55:45;;;;;;;;;;;;;;;19.97;47.84;98325.97;5133086;27;19928;-39
2022/11/17 04:58:10;;;;;;;;;;;;;;;19.98;47.84;98346.91;5124288;27;19938;-39
2022/11/17 05:00:36;;;;;;;;;;;;;;;19.98;47.88;98349.69;5130178;27;19924;-39
2022/11/17 05:03:01;;;;;;;;;;;;;;;19.96;47.93;98352.78;5126740;27;19923;-38
2022/11/17 05:05:27;;;;;;;;;;;;;;;19.97;47.95;98332.31;5125409;27;19924;-38
2022/11/17 05:07:52;;;;;;;;;;;;;;;19.98;48.04;98333.09;5130097;27;19924;-39
2022/11/17 05:13:20;;;;;;;;;;;;;;;19.97;48.06;98337.03;5121587;27;19955;-40
2022/11/17 05:13:35;;;;;;;;;;;;;;;19.97;47.81;98339.78;5100198;27;19924;-38
2022/11/17 05:18:38;;;;;;;;;;;;;;;19.97;48.04;98334.25;5097561;27;20355;-39
2022/11/17 05:21:05;;;;;;;;;;;;;;;19.97;47.79;98317.69;5107702;28;19923;-39
2022/11/17 05:24:01;;;;;;;;;;;;;;;19.97;47.96;98320.44;5102472;28;19952;-40
2022/11/17 05:26:16;;;;;;;;;;;;;;;19.98;47.82;98305.47;5116970;27;20005;-38
2022/11/17 05:28:41;;;;;;;;;;;;;;;19.97;47.98;98312.16;5115250;27;19923;-39
2022/11/17 05:31:07;;;;;;;;;;;;;;;19.98;47.75;98308.25;5127529;27;19924;-39
2022/11/17 05:33:32;;;;;;;;;;;;;;;19.97;48.07;98306.63;5127887;27;19923;-39
2022/11/17 05:36:03;;;;;;;;;;;;;;;19.97;47.97;98312.16;5112509;27;20395;-37
2022/11/17 05:38:29;;;;;;;;;;;;;;;19.96;47.93;98319.66;5108298;27;20189;-38
2022/11/17 05:40:54;;;;;;;;;;;;;;;19.97;47.81;98317.69;5126367;27;19978;-38
2022/11/17 05:43:20;;;;;;;;;;;;;;;19.96;47.88;98308.59;5126632;27;19923;-40
2022/11/17 05:45:45;;;;;;;;;;;;;;;19.96;48.18;98313.31;5123865;27;19946;-39
2022/11/17 05:48:11;;;;;;;;;;;;;;;19.96;47.88;98319.66;5128762;27;19934;-39
2022/11/17 05:50:36;;;;;;;;;;;;;;;19.96;47.76;98322.41;5110544;27;19931;-39
2022/11/17 05:53:02;;;;;;;;;;;;;;;19.97;47.89;98312.16;5127737;27;19931;-38
2022/11/17 05:55:28;;;;;;;;;;;;;;;19.96;48.17;98327.94;5110972;28;19932;-39
2022/11/17 05:57:53;;;;;;;;;;;;;;;19.96;47.91;98322.41;5129767;27;19975;-39
2022/11/17 06:00:19;;;;;;;;;;;;;;;19.95;47.90;98331.84;5130916;27;19943;-38
2022/11/17 06:02:46;;;;;;;;;;;;;;;19.96;47.86;98338.97;5126624;27;19959;-39
2022/11/17 06:05:11;;;;;;;;;;;;;;;19.95;48.07;98342.91;5120000;27;20402;-39
2022/11/17 06:07:45;;;;;;;;;;;;;;;19.97;47.90;98339.78;5095223;27;20281;-39
2022/11/17 06:10:10;;;;;;;;;;;;;;;19.96;48.13;98350.03;5129110;27;19934;-39
2022/11/17 06:12:36;;;;;;;;;;;;;;;19.96;47.78;98340.94;5122314;27;20274;-39
2022/11/17 06:15:02;;;;;;;;;;;;;;;19.97;48.08;98342.53;5124743;27;19923;-38
2022/11/17 06:17:30;;;;;;;;;;;;;;;19.96;47.92;98352.00;5106929;27;20393;-39
2022/11/17 06:19:58;;;;;;;;;;;;;;;19.96;47.86;98347.28;5122225;27;20037;-38
2022/11/17 06:22:24;;;;;;;;;;;;;;;19.96;48.16;98352.78;5123209;27;19957;-39
2022/11/17 06:24:49;;;;;;;;;;;;;;;19.96;48.15;98354.75;5121987;27;19977;-38
2022/11/17 06:27:15;;;;;;;;;;;;;;;19.97;47.91;98356.34;5122396;27;19924;-39
2022/11/17 06:29:41;;;;;;;;;;;;;;;19.95;48.07;98353.16;5129817;27;19927;-39
2022/11/17 06:32:10;;;;;;;;;;;;;;;19.95;48.00;98348.44;5130925;27;20379;-39
2022/11/17 06:34:36;;;;;;;;;;;;;;;19.95;47.86;98348.44;5108803;27;19935;-38
2022/11/17 06:37:01;;;;;;;;;;;;;;;19.95;47.85;98348.44;5122396;27;19963;-39
2022/11/17 06:39:27;;;;;;;;;;;;;;;19.95;47.86;98353.16;5126670;27;20296;-39
2022/11/17 06:41:53;;;;;;;;;;;;;;;19.96;47.90;98360.28;5117820;27;19983;-39
2022/11/17 06:44:18;;;;;;;;;;;;;;;19.95;47.80;98361.44;5125798;27;19931;-40
2022/11/17 06:46:44;;;;;;;;;;;;;;;19.95;47.93;98362.25;5121798;27;20352;-39
2022/11/17 06:49:14;;;;;;;;;;;;;;;19.96;48.10;98365.81;5126318;27;19931;-38
2022/11/17 06:51:39;;;;;;;;;;;;;;;19.94;48.11;98368.91;5122379;27;19927;-40
2022/11/17 06:54:11;;;;;;;;;;;;;;;19.95;48.09;98376.06;5126165;27;19923;-39
2022/11/17 06:56:36;;;;;;;;;;;;;;;19.96;47.96;98376.84;5117286;27;20930;-38
2022/11/17 06:59:02;;;;;;;;;;;;;;;19.95;47.89;98381.59;5115491;27;19927;-39
2022/11/17 07:01:27;;;;;;;;;;;;;;;19.94;47.99;98377.19;5110866;27;19927;-38
2022/11/17 07:03:53;;;;;;;;;;;;;;;19.95;47.96;98386.31;5104111;27;20370;-38
2022/11/17 07:06:19;;;;;;;;;;;;;;;19.94;48.00;98391.00;5095097;27;19923;-39
2022/11/17 07:08:44;;;;;;;;;;;;;;;19.94;47.94;98398.47;5117830;27;19935;-39
2022/11/17 07:11:11;;;;;;;;;;;;;;;19.94;47.91;98406.78;5096235;27;19931;-39
2022/11/17 07:13:36;;;;;;;;;;;;;;;19.94;48.15;98392.97;5096182;28;20402;-41
2022/11/17 07:16:03;;;;;;;;;;;;;;;19.94;48.04;98415.84;5097820;27;19924;-39
2022/11/17 07:18:29;;;;;;;;;;;;;;;19.94;48.08;98421.38;5116707;27;20384;-39
2022/11/17 07:20:54;;;;;;;;;;;;;;;19.95;48.00;98422.22;5111848;27;19988;-38
2022/11/17 07:23:20;;;;;;;;;;;;;;;19.93;47.95;98430.81;5114349;27;20009;-39
2022/11/17 07:25:46;;;;;;;;;;;;;;;19.93;48.01;98425.31;5098230;28;19959;-37
2022/11/17 07:28:12;;;;;;;;;;;;;;;19.93;47.94;98433.59;5113558;27;19972;-38
2022/11/17 07:30:38;;;;;;;;;;;;;;;19.93;48.18;98441.88;5113345;27;19931;-39
2022/11/17 07:33:04;;;;;;;;;;;;;;;19.94;48.07;98440.72;5109759;27;20000;-39
2022/11/17 07:35:30;;;;;;;;;;;;;;;19.94;48.03;98445.44;5110818;27;19965;-38
2022/11/17 07:37:58;;;;;;;;;;;;;;;19.94;48.03;98439.91;5107780;27;19931;-39
2022/11/17 07:40:23;;;;;;;;;;;;;;;19.94;48.14;98459.25;5115689;27;19981;-39
2022/11/17 07:42:49;;;;;;;;;;;;;;;19.93;47.93;98443.84;5093954;27;19927;-39
2022/11/17 07:45:14;;;;;;;;;;;;;;;19.93;47.94;98446.59;5105954;27;19943;-39
2022/11/17 07:47:40;;;;;;;;;;;;;;;19.93;48.22;98449.38;5104370;27;19927;-38
2022/11/17 07:50:06;;;;;;;;;;;;;;;19.93;48.21;98450.16;5110685;27;19943;-39
2022/11/17 07:52:31;;;;;;;;;;;;;;;19.93;48.00;98452.13;5109735;27;20329;-39
2022/11/17 07:55:00;;;;;;;;;;;;;;;19.93;48.04;98452.94;5113285;27;19931;-39
2022/11/17 07:57:27;;;;;;;;;;;;;;;19.94;48.11;98459.25;5114030;27;20303;-39
2022/11/17 07:59:53;;;;;;;;;;;;;;;19.93;47.81;98463.97;5104175;27;20405;-38
2022/11/17 08:02:18;;;;;;;;;;;;;;;19.93;48.56;98468.69;5088948;28;20391;-38
2022/11/17 08:04:44;;;;;;;;;;;;;;;19.93;48.03;98477.00;5109025;27;19964;-37
2022/11/17 08:07:09;;;;;;;;;;;;;;;19.93;48.28;98471.47;5102504;27;19932;-39
2022/11/17 08:09:35;;;;;;;;;;;;;;;19.93;47.98;98474.22;5103368;27;19924;-39
2022/11/17 08:12:00;;;;;;;;;;;;;;;19.93;47.95;98474.22;5096767;27;19927;-38
2022/11/17 08:14:26;;;;;;;;;;;;;;;19.92;48.03;98478.94;5104320;27;19923;-39
2022/11/17 08:16:52;;;;;;;;;;;;;;;19.92;48.03;98490.00;5109423;27;19938;-40
2022/11/17 08:19:17;;;;;;;;;;;;;;;19.93;48.11;98490.78;5108246;27;20339;-40
2022/11/17 08:21:43;;;;;;;;;;;;;;;19.92;48.10;98495.53;5111808;27;19935;-39
2022/11/17 08:24:10;;;;;;;;;;;;;;;19.92;47.99;98487.22;5108949;27;19938;-38
2022/11/17 08:26:36;;;;;;;;;;;;;;;19.92;48.20;98490.00;5101898;27;19990;-39
2022/11/17 08:29:01;;;;;;;;;;;;;;;19.92;48.09;98490.00;5111364;27;20382;-39
2022/11/17 08:31:27;;;;;;;;;;;;;;;19.93;48.13;98496.31;5117197;27;19957;-39
2022/11/17 08:33:52;;;;;;;;;;;;;;;19.92;48.00;98492.75;5117064;27;19934;-40
2022/11/17 08:36:18;;;;;;;;;;;;;;;19.92;48.19;98500.25;5116780;27;19999;-41
2022/11/17 08:38:43;;;;;;;;;;;;;;;19.92;47.94;98503.81;5116822;27;19939;-39
2022/11/17 08:41:09;;;;;;;;;;;;;;;19.92;48.26;98505.75;5108721;27;19946;-39
2022/11/17 08:43:34;;;;;;;;;;;;;;;19.92;47.95;98509.34;5111061;27;19928;-40
2022/11/17 08:46:01;;;;;;;;;;;;;;;19.93;48.06;98510.13;5085190;27;20288;-41
2022/11/17 08:48:30;;;;;;;;;;;;;;;19.92;48.37;98514.06;5093084;27;20015;-40
2022/11/17 08:50:56;;;;;;;;;;;;;;;19.92;47.91;98514.06;5110582;27;20031;-38
2022/11/17 08:53:22;;;;;;;;;;;;;;;19.51;52.19;98518.53;5099570;28;19939;-41
2022/11/17 08:55:48;;;;;;;;;;;;;;;19.66;51.18;98515.16;5095905;27;19971;-39
2022/11/17 08:58:13;;;;;;;;;;;;;;;19.82;49.87;98511.72;5113999;27;20163;-38
2022/11/17 09:00:39;;;;;;;;;;;;;;;19.88;50.08;98515.88;5092570;27;20050;-39
2022/11/17 09:03:05;;;;;;;;;;;;;;;19.90;49.30;98519.91;5081764;28;20341;-40
2022/11/17 09:05:31;;;;;;;;;;;;;;;19.92;49.56;98520.38;5090440;27;20354;-40
2022/11/17 09:07:58;;;;;;;;;;;;;;;19.93;49.20;98513.69;5110812;27;19931;-39
2022/11/17 09:10:43;;;;;;;;;;;;;;;19.93;49.07;98518.41;5085530;27;20008;-41
2022/11/17 09:13:09;;;;;;;;;;;;;;;19.94;49.25;98531.06;5111725;27;19939;-39
2022/11/17 09:15:34;;;;;;;;;;;;;;;19.94;49.02;98531.06;5109926;27;19931;-38
2022/11/17 09:18:01;;;;;;;;;;;;;;;19.94;49.04;98529.13;5114997;27;20561;-39
2022/11/17 09:20:27;;;;;;;;;;;;;;;19.95;49.54;98547.31;5110043;27;19970;-38
2022/11/17 09:22:53;;;;;;;;;;;;;;;19.94;49.30;98555.94;5094279;27;20266;-39
2022/11/17 09:25:18;;;;;;;;;;;;;;;19.94;49.10;98553.97;5110294;27;19932;-39
2022/11/17 09:27:44;;;;;;;;;;;;;;;19.94;49.11;98553.16;5114247;27;19949;-40
2022/11/17 09:30:10;;;;;;;;;;;;;;;19.96;49.07;98550.88;5113442;27;20559;-37
2022/11/17 09:32:35;;;;;;;;;;;;;;;19.96;49.08;98557.22;5110953;27;19931;-40
2022/11/17 09:35:05;;;;;;;;;;;;;;;19.98;48.89;98567.91;5104869;27;19935;-40
2022/11/17 09:37:30;;;;;;;;;;;;;;;19.98;49.24;98568.72;5103995;27;19934;-39
2022/11/17 09:39:56;;;;;;;;;;;;;;;19.99;49.09;98575.88;5102123;27;20266;-39
2022/11/17 09:42:21;;;;;;;;;;;;;;;19.97;48.93;98575.41;5101223;27;19943;-39
2022/11/17 09:45:03;;;;;;;;;;;;;;;19.99;48.85;98575.03;5100604;27;19935;-39
2022/11/17 09:47:47;;;;;;;;;;;;;;;19.99;48.81;98577.81;5091196;27;21242;-42
2022/11/17 09:50:29;;;;;;;;;;;;;;;19.99;48.96;98584.16;5110348;27;19947;-37
2022/11/17 09:53:15;;;;;;;;;;;;;;;20.00;49.01;98582.22;5099047;27;20402;-39
2022/11/17 09:55:41;;;;;;;;;;;;;;;20.00;48.76;98583.00;5099752;27;19975;-38
2022/11/17 09:58:10;;;;;;;;;;;;;;;20.00;48.89;98579.44;5091222;27;19970;-39
2022/11/17 10:00:36;;;;;;;;;;;;;;;20.00;48.61;98587.72;5115570;27;19970;-39
2022/11/17 10:03:01;;;;;;;;;;;;;;;20.00;48.75;98594.06;5100523;28;19932;-39
2022/11/17 10:05:28;;;;;;;;;;;;;;;20.04;48.72;98596.94;5112392;27;19924;-38
2022/11/17 10:07:55;;;;;;;;;;;;;;;20.05;48.84;98584.75;5108947;27;20570;-39
2022/11/17 10:10:33;;;;;;;;;;;;;;;20.03;48.77;98598.06;5114362;27;20065;-40
2022/11/17 10:12:58;;;;;;;;;;;;;;;20.02;48.69;98600.03;5095868;28;20711;-39
2022/11/17 10:15:25;;;;;;;;;;;;;;;20.02;49.02;98611.09;5108354;27;19935;-39
2022/11/17 10:17:50;;;;;;;;;;;;;;;20.02;48.85;98615.81;5110153;27;19970;-37
2022/11/17 10:20:17;;;;;;;;;;;;;;;20.01;48.65;98622.50;5108402;27;19931;-38
2022/11/17 10:22:43;;;;;;;;;;;;;;;20.02;48.77;98627.66;5094521;27;19928;-38
2022/11/17 10:25:28;;;;;;;;;;;;;;;20.02;48.71;98624.91;5117485;27;19938;-39
2022/11/17 10:27:54;;;;;;;;;;;;;;;20.02;49.02;98627.66;5092164;27;19966;-40
2022/11/17 10:30:22;;;;;;;;;;;;;;;20.02;48.65;98633.19;5109254;27;19962;-38
2022/11/17 10:32:52;;;;;;;;;;;;;;;20.02;48.24;98630.44;5109289;27;19928;-39
2022/11/17 10:35:19;;;;;;;;;;;;;;;20.03;48.36;98639.53;5112461;27;20384;-40
2022/11/17 10:37:54;;;;;;;;;;;;;;;20.03;48.20;98621.00;5106413;27;20305;-39
2022/11/17 10:40:20;;;;;;;;;;;;;;;20.02;48.16;98624.91;5079533;28;20026;-40
2022/11/17 10:42:56;;;;;;;;;;;;;;;20.04;48.47;98628.16;5072622;27;19990;-40
2022/11/17 10:45:21;;;;;;;;;;;;;;;20.00;48.13;98616.16;5083909;28;19928;-40
2022/11/17 10:47:47;;;;;;;;;;;;;;;20.03;48.50;98632.06;5104494;27;19923;-39
2022/11/17 10:50:21;;;;;;;;;;;;;;;20.05;48.21;98634.47;5106900;27;20271;-40
2022/11/17 10:52:47;;;;;;;;;;;;;;;20.05;48.36;98637.25;5113650;27;20016;-39
2022/11/17 10:57:53;;;;;;;;;;;;;;;20.03;48.16;98631.22;5115852;27;19938;-40
2022/11/17 11:00:34;;;;;;;;;;;;;;;20.06;48.22;98636.09;5080722;28;20352;-40
2022/11/17 11:03:02;;;;;;;;;;;;;;;20.09;48.24;98631.84;5083422;28;19990;-40
2022/11/17 11:05:27;;;;;;;;;;;;;;;20.09;48.66;98643.69;5077051;28;20019;-39
2022/11/17 11:07:54;;;;;;;;;;;;;;;20.09;48.28;98629.06;5070889;28;20372;-40
2022/11/17 11:10:29;;;;;;;;;;;;;;;20.09;48.31;98634.59;5065553;28;19977;-37
2022/11/17 11:12:58;;;;;;;;;;;;;;;20.10;48.37;98633.44;5049759;28;20058;-39
2022/11/17 11:15:24;;;;;;;;;;;;;;;20.09;48.70;98645.66;5050594;28;19940;-39
2022/11/17 11:17:50;;;;;;;;;;;;;;;20.10;48.51;98638.97;5064752;28;19994;-39
2022/11/17 11:20:17;;;;;;;;;;;;;;;20.10;48.44;98641.75;5069397;28;19932;-39
2022/11/17 11:22:58;;;;;;;;;;;;;;;19.81;48.09;98649.00;5072340;28;20562;-40
2022/11/17 11:25:29;;;;;;;;;;;;;;;20.01;48.11;98644.59;5058584;28;19990;-38
2022/11/17 11:27:59;;;;;;;;;;;;;;;20.07;48.14;98648.75;5076991;28;20022;-39
2022/11/17 11:30:25;;;;;;;;;;;;;;;20.09;48.43;98657.50;5073753;28;19932;-40
2022/11/17 11:32:57;;;;;;;;;;;;;;;20.09;48.14;98653.94;5072337;28;19932;-37
2022/11/17 11:38:21;;;;;;;;;;;;;;;20.08;48.06;98666.97;5150464;27;19926;-40
2022/11/17 11:40:54;;;;;;;;;;;;;;;20.08;48.18;98660.59;5132425;27;20248;-38
2022/11/17 11:43:27;;;;;;;;;;;;;;;20.09;47.44;98665.00;5119537;27;20057;-39
2022/11/17 11:45:56;;;;;;;;;;;;;;;20.08;47.56;98655.06;5120369;27;20456;-39
2022/11/17 11:48:22;;;;;;;;;;;;;;;20.11;47.94;98673.75;5145389;27;21300;-40
2022/11/17 11:50:52;;;;;;;;;;;;;;;20.11;48.01;98662.69;5153053;27;20290;-39
2022/11/17 11:53:37;;;;;;;;;;;;;;;20.10;48.28;98666.59;5132522;27;20367;-39
2022/11/17 11:56:06;;;;;;;;;;;;;;;20.09;48.29;98665.81;5132431;27;20562;-40
2022/11/17 11:58:31;;;;;;;;;;;;;;;20.09;48.14;98676.84;5151417;27;20092;-39
2022/11/17 12:00:59;;;;;;;;;;;;;;;20.11;48.47;98674.53;5123637;27;19931;-38
2022/11/17 12:03:28;;;;;;;;;;;;;;;20.12;48.04;98667.88;5133726;27;19927;-39
2022/11/17 12:05:57;;;;;;;;;;;;;;;20.11;48.00;98677.31;5128998;27;19984;-40
2022/11/17 12:08:25;;;;;;;;;;;;;;;20.11;48.30;98682.03;5110909;27;19974;-39
2022/11/17 12:10:52;;;;;;;;;;;;;;;20.02;47.20;98684.88;5130970;27;19931;-38
2022/11/17 12:13:18;;;;;;;;;;;;;;;20.13;47.55;98685.28;5112685;27;19962;-39
2022/11/17 12:15:43;;;;;;;;;;;;;;;20.13;47.40;98690.81;5128804;27;19980;-38
2022/11/17 12:18:11;;;;;;;;;;;;;;;20.12;47.38;98681.72;5127675;27;19924;-40
2022/11/17 12:23:32;;;;;;;;;;;;;;;20.14;47.60;98686.88;5156997;27;20388;-39
2022/11/17 12:25:57;;;;;;;;;;;;;;;20.14;47.78;98692.41;5132718;27;19977;-39
2022/11/17 12:28:39;;;;;;;;;;;;;;;20.14;47.87;98684.13;5146991;27;19927;-39
2022/11/17 12:31:05;;;;;;;;;;;;;;;20.15;48.03;98685.72;5136845;27;20022;-40
2022/11/17 12:33:54;;;;;;;;;;;;;;;20.16;47.71;98681.81;5131284;27;19934;-38
2022/11/17 12:38:58;;;;;;;;;;;;;;;20.14;48.07;98686.88;5153774;27;19930;-37
2022/11/17 12:41:44;;;;;;;;;;;;;;;20.14;48.12;98693.22;5152337;27;19965;-39
2022/11/17 12:44:29;;;;;;;;;;;;;;;20.15;48.04;98697.59;5137482;27;20058;-40
2022/11/17 12:46:55;;;;;;;;;;;;;;;20.17;48.40;98700.03;5139744;27;19974;-38
2022/11/17 12:49:23;;;;;;;;;;;;;;;20.16;47.90;98695.63;5153323;27;19957;-39
2022/11/17 12:51:56;;;;;;;;;;;;;;;20.15;47.82;98694.81;5153273;27;20014;-39
2022/11/17 12:54:24;;;;;;;;;;;;;;;20.16;48.10;98695.63;5149546;27;20339;-39
2022/11/17 12:59:45;;;;;;;;;;;;;;;20.16;47.94;98693.66;5155623;27;19930;-40
2022/11/17 13:02:30;;;;;;;;;;;;;;;20.18;47.96;98696.91;5148160;27;20356;-40
2022/11/17 13:04:59;;;;;;;;;;;;;;;20.19;48.15;98700.47;5141882;27;19954;-39
2022/11/17 13:07:25;;;;;;;;;;;;;;;20.19;47.97;98706.00;5160233;27;19962;-40
2022/11/17 13:09:56;;;;;;;;;;;;;;;20.18;48.24;98699.69;5147947;27;20278;-40
2022/11/17 13:12:23;;;;;;;;;;;;;;;20.19;48.30;98698.53;5138768;27;20014;-40
2022/11/17 13:14:50;;;;;;;;;;;;;;;20.19;48.04;98703.25;5136019;27;19960;-40
2022/11/17 13:17:16;;;;;;;;;;;;;;;20.18;47.87;98705.19;5155891;27;19980;-40
2022/11/17 13:19:42;;;;;;;;;;;;;;;20.20;47.95;98704.84;5156646;27;19923;-40
2022/11/17 13:24:46;;;;;;;;;;;;;;;20.18;48.08;98709.94;5155116;27;19941;-39
2022/11/17 13:27:16;;;;;;;;;;;;;;;20.18;47.81;98704.41;5147825;27;20452;-40
2022/11/17 13:29:42;;;;;;;;;;;;;;;20.18;47.89;98713.50;5153443;27;19995;-39
2022/11/17 13:32:16;;;;;;;;;;;;;;;20.19;48.38;98704.03;5138643;27;20094;-38
2022/11/17 13:34:56;;;;;;;;;;;;;;;20.20;48.14;98710.38;5137361;27;19939;-39
2022/11/17 13:37:23;;;;;;;;;;;;;;;20.19;48.06;98708.78;5136822;27;19970;-38
2022/11/17 13:39:52;;;;;;;;;;;;;;;20.19;47.99;98714.28;5140617;27;19975;-38
2022/11/17 13:42:18;;;;;;;;;;;;;;;20.20;48.23;98716.72;5148700;27;19927;-39
2022/11/17 13:44:44;;;;;;;;;;;;;;;20.19;48.40;98715.09;5144368;27;19931;-39